Loami, IL (62661)

12:07 PM CDT on August 28, 2016 (GMT -0500)
Smith Farms | | Change Station
Active Advisory: Special Statement Active Notice: Local Storm Report

Elev 656 ft 39.72 °N, 89.92 °W | Updated 3 minutes ago

Scattered Clouds
Scattered Clouds
89.8 °F
Feels Like 104 °F
N
5.3
Wind Variable Wind from SSW

Today
High -- | Low -- °F
--% Chance of Precip.
Yesterday
High -- | Low -- °F
Precip. -- in
Pressure 30.17 in
Visibility 10.0 miles
Clouds Scattered Clouds 2700 ft
Heat Index 104 °F
Dew Point 78 °F
Humidity 68%
Rainfall 2.98 in
Snow Depth Not available.
6:24 AM 7:35 PM
Waning Crescent, 14% visible
METAR KSPI 281652Z 12003KT 10SM SCT027 30/23 A3018 RMK AO2 SLP215 T03000233
Pressure 30.17 in
Visibility 10.0 miles
Clouds Scattered Clouds 2700 ft
Heat Index 104 °F
Dew Point 78 °F
Humidity 68%
Rainfall 2.98 in
Snow Depth Not available.
6:24 AM 7:35 PM
Waning Crescent, 14% visible
METAR KSPI 281652Z 12003KT 10SM SCT027 30/23 A3018 RMK AO2 SLP215 T03000233

10-Day Weather Forecast

Almanac

Astronomy

Aug. 28, 2016 Rise Set
Actual Time
Civil Twilight
Nautical Twilight
Astronomical Twilight
Moon
Length of Visible Light
Length of Day
Tomorrow will be .
, % of the Moon is Illuminated

Today's Extremes

State Highs State Lows

Community

WunderPhotos

Upload Photos

1,935,627 photos uploaded!

WunderBlog® & News

Nearby

Air Quality

  Air Quality AQ Index Pollutant
Not available.

Snow Depth

Station Depth Elevation

Earthquake Activity

City Distance Mag. Time & Date
Minimum magnitude displayed is 2.5.

Coastal Water Temperatures

Place Temperature

Stations

Nearby Weather Stations

Station Location Temp. Windchill Dew Point Humidity Wind Precip. Elev Updated Type
                   

Watches & Warnings

Special Statement
Issued: 12:02 PM CDT Aug. 28, 2016 – National Weather Service

... Funnel clouds sighted over northeast Morgan... northwest
Sangamon... and southeast Cass County...

Atmospheric conditions exist across the area today that favor the
formation of weak circulations... along an existing boundary.
Some of these circulations are occurring underneath developing
showers and thunderstorms... where a funnel cloud may develop. Once the
rain begins... The Funnel cloud dissipates.

Low hanging clouds can also appear to dip up and down at times... but
they will not show signs of any rapid rotation. An actual funnel
cloud will exhibit spinning in a counter clockwise direction.

In rare instances... these funnels may briefly touch down. Stay
alert... and be prepared to move to a safe shelter... if a funnel
cloud approaches the ground.


Lat... Lon 3983 9057 3986 9058 4002 8959 3962 8969
      3955 9057 3962 9061 3975 9062

Onton